sensor_id;sensor_type;location;lat;lon;timestamp;temperature;humidity
49184;DHT22;35021;49.214;12.270;2023-04-23T00:01:17;20.50;46.40
49184;DHT22;35021;49.214;12.270;2023-04-23T00:03:45;20.50;46.40
49184;DHT22;35021;49.214;12.270;2023-04-23T00:06:14;20.50;46.40
49184;DHT22;35021;49.214;12.270;2023-04-23T00:08:43;20.50;46.50
49184;DHT22;35021;49.214;12.270;2023-04-23T00:11:10;20.50;46.50
49184;DHT22;35021;49.214;12.270;2023-04-23T00:13:37;20.50;46.50
49184;DHT22;35021;49.214;12.270;2023-04-23T00:16:05;20.50;46.50
49184;DHT22;35021;49.214;12.270;2023-04-23T00:18:32;20.50;46.50
49184;DHT22;35021;49.214;12.270;2023-04-23T00:20:59;20.50;46.60
49184;DHT22;35021;49.214;12.270;2023-04-23T00:23:27;20.50;46.50
49184;DHT22;35021;49.214;12.270;2023-04-23T00:25:54;20.50;46.60
49184;DHT22;35021;49.214;12.270;2023-04-23T00:28:22;20.50;46.50
49184;DHT22;35021;49.214;12.270;2023-04-23T00:30:49;20.50;46.60
49184;DHT22;35021;49.214;12.270;2023-04-23T00:33:16;20.50;46.60
49184;DHT22;35021;49.214;12.270;2023-04-23T00:35:43;20.50;46.50
49184;DHT22;35021;49.214;12.270;2023-04-23T00:38:10;20.50;46.50
49184;DHT22;35021;49.214;12.270;2023-04-23T00:40:37;20.50;46.50
49184;DHT22;35021;49.214;12.270;2023-04-23T00:43:04;20.50;46.50
49184;DHT22;35021;49.214;12.270;2023-04-23T00:45:32;20.50;46.50
49184;DHT22;35021;49.214;12.270;2023-04-23T00:47:59;20.50;46.50
49184;DHT22;35021;49.214;12.270;2023-04-23T00:50:26;20.50;46.50
49184;DHT22;35021;49.214;12.270;2023-04-23T00:52:53;20.50;46.50
49184;DHT22;35021;49.214;12.270;2023-04-23T00:55:20;20.50;46.60
49184;DHT22;35021;49.214;12.270;2023-04-23T00:57:47;20.40;46.50
49184;DHT22;35021;49.214;12.270;2023-04-23T01:00:14;20.50;46.60
49184;DHT22;35021;49.214;12.270;2023-04-23T01:02:42;20.50;46.60
49184;DHT22;35021;49.214;12.270;2023-04-23T01:05:10;20.50;46.60
49184;DHT22;35021;49.214;12.270;2023-04-23T01:07:39;20.50;46.70
49184;DHT22;35021;49.214;12.270;2023-04-23T01:10:07;20.50;46.60
49184;DHT22;35021;49.214;12.270;2023-04-23T01:12:34;20.50;46.60
49184;DHT22;35021;49.214;12.270;2023-04-23T01:15:02;20.50;46.70
49184;DHT22;35021;49.214;12.270;2023-04-23T01:17:30;20.50;46.70
49184;DHT22;35021;49.214;12.270;2023-04-23T01:19:58;20.40;46.70
49184;DHT22;35021;49.214;12.270;2023-04-23T01:22:25;20.40;46.70
49184;DHT22;35021;49.214;12.270;2023-04-23T01:24:52;20.50;46.80
49184;DHT22;35021;49.214;12.270;2023-04-23T01:27:20;20.40;46.70
49184;DHT22;35021;49.214;12.270;2023-04-23T01:29:51;20.40;47.40
49184;DHT22;35021;49.214;12.270;2023-04-23T01:32:18;20.40;46.80
49184;DHT22;35021;49.214;12.270;2023-04-23T01:34:47;20.40;46.80
49184;DHT22;35021;49.214;12.270;2023-04-23T01:37:15;20.40;46.90
49184;DHT22;35021;49.214;12.270;2023-04-23T01:39:43;20.30;47.00
49184;DHT22;35021;49.214;12.270;2023-04-23T01:42:10;20.30;47.10
49184;DHT22;35021;49.214;12.270;2023-04-23T01:44:37;20.30;47.20
49184;DHT22;35021;49.214;12.270;2023-04-23T01:47:04;20.20;47.10
49184;DHT22;35021;49.214;12.270;2023-04-23T01:49:33;20.20;47.20
49184;DHT22;35021;49.214;12.270;2023-04-23T01:51:59;20.20;47.20
49184;DHT22;35021;49.214;12.270;2023-04-23T01:54:26;20.20;47.20
49184;DHT22;35021;49.214;12.270;2023-04-23T01:56:53;20.20;47.20
49184;DHT22;35021;49.214;12.270;2023-04-23T01:59:21;20.20;47.20
49184;DHT22;35021;49.214;12.270;2023-04-23T02:01:48;20.20;47.20
49184;DHT22;35021;49.214;12.270;2023-04-23T02:04:17;20.20;47.20
49184;DHT22;35021;49.214;12.270;2023-04-23T02:06:48;20.10;47.80
49184;DHT22;35021;49.214;12.270;2023-04-23T02:09:15;20.20;47.20
49184;DHT22;35021;49.214;12.270;2023-04-23T02:11:42;20.20;47.10
49184;DHT22;35021;49.214;12.270;2023-04-23T02:14:09;20.20;47.10
49184;DHT22;35021;49.214;12.270;2023-04-23T02:16:36;20.20;47.10
49184;DHT22;35021;49.214;12.270;2023-04-23T02:19:03;20.20;47.20
49184;DHT22;35021;49.214;12.270;2023-04-23T02:21:30;20.20;47.20
49184;DHT22;35021;49.214;12.270;2023-04-23T02:23:57;20.20;47.20
49184;DHT22;35021;49.214;12.270;2023-04-23T02:26:24;20.20;47.20
49184;DHT22;35021;49.214;12.270;2023-04-23T02:28:51;20.20;47.20
49184;DHT22;35021;49.214;12.270;2023-04-23T02:31:18;20.20;47.20
49184;DHT22;35021;49.214;12.270;2023-04-23T02:33:47;20.20;47.30
49184;DHT22;35021;49.214;12.270;2023-04-23T02:36:14;20.20;47.30
49184;DHT22;35021;49.214;12.270;2023-04-23T02:38:41;20.20;47.20
49184;DHT22;35021;49.214;12.270;2023-04-23T02:41:10;20.20;47.30
49184;DHT22;35021;49.214;12.270;2023-04-23T02:43:38;20.20;47.30
49184;DHT22;35021;49.214;12.270;2023-04-23T02:46:05;20.20;47.30
49184;DHT22;35021;49.214;12.270;2023-04-23T02:48:40;20.20;47.30
49184;DHT22;35021;49.214;12.270;2023-04-23T02:51:09;20.20;47.30
49184;DHT22;35021;49.214;12.270;2023-04-23T02:53:37;20.20;47.30
49184;DHT22;35021;49.214;12.270;2023-04-23T02:56:04;20.20;47.30
49184;DHT22;35021;49.214;12.270;2023-04-23T02:58:32;20.20;47.30
49184;DHT22;35021;49.214;12.270;2023-04-23T03:01:00;20.20;47.20
49184;DHT22;35021;49.214;12.270;2023-04-23T03:03:28;20.20;47.30
49184;DHT22;35021;49.214;12.270;2023-04-23T03:05:59;20.20;47.30
49184;DHT22;35021;49.214;12.270;2023-04-23T03:08:26;20.20;47.40
49184;DHT22;35021;49.214;12.270;2023-04-23T03:10:53;20.20;47.40
49184;DHT22;35021;49.214;12.270;2023-04-23T03:13:20;20.20;47.40
49184;DHT22;35021;49.214;12.270;2023-04-23T03:15:48;20.20;47.40
49184;DHT22;35021;49.214;12.270;2023-04-23T03:18:15;20.20;47.40
49184;DHT22;35021;49.214;12.270;2023-04-23T03:20:43;20.20;47.40
49184;DHT22;35021;49.214;12.270;2023-04-23T03:23:10;20.20;47.50
49184;DHT22;35021;49.214;12.270;2023-04-23T03:25:37;20.20;47.50
49184;DHT22;35021;49.214;12.270;2023-04-23T03:28:04;20.20;47.60
49184;DHT22;35021;49.214;12.270;2023-04-23T03:30:31;20.20;47.60
49184;DHT22;35021;49.214;12.270;2023-04-23T03:32:58;20.20;47.60
49184;DHT22;35021;49.214;12.270;2023-04-23T03:35:26;20.20;47.60
49184;DHT22;35021;49.214;12.270;2023-04-23T03:37:53;20.20;47.60
49184;DHT22;35021;49.214;12.270;2023-04-23T03:40:21;20.20;47.70
49184;DHT22;35021;49.214;12.270;2023-04-23T03:42:48;20.20;47.70
49184;DHT22;35021;49.214;12.270;2023-04-23T03:45:14;20.20;47.70
49184;DHT22;35021;49.214;12.270;2023-04-23T03:47:42;20.20;47.60
49184;DHT22;35021;49.214;12.270;2023-04-23T03:50:10;20.20;47.70
49184;DHT22;35021;49.214;12.270;2023-04-23T03:52:39;20.20;47.70
49184;DHT22;35021;49.214;12.270;2023-04-23T03:55:06;20.20;47.70
49184;DHT22;35021;49.214;12.270;2023-04-23T03:57:34;20.20;47.70
49184;DHT22;35021;49.214;12.270;2023-04-23T04:00:02;20.20;47.80
49184;DHT22;35021;49.214;12.270;2023-04-23T04:02:30;20.20;47.80
49184;DHT22;35021;49.214;12.270;2023-04-23T04:04:57;20.20;47.80
49184;DHT22;35021;49.214;12.270;2023-04-23T04:07:25;20.20;47.80
49184;DHT22;35021;49.214;12.270;2023-04-23T04:09:52;20.20;47.80
49184;DHT22;35021;49.214;12.270;2023-04-23T04:12:19;20.20;47.90
49184;DHT22;35021;49.214;12.270;2023-04-23T04:14:46;20.20;47.90
49184;DHT22;35021;49.214;12.270;2023-04-23T04:17:13;20.20;47.90
49184;DHT22;35021;49.214;12.270;2023-04-23T04:19:41;20.10;47.90
49184;DHT22;35021;49.214;12.270;2023-04-23T04:22:08;20.10;47.90
49184;DHT22;35021;49.214;12.270;2023-04-23T04:24:35;20.20;48.00
49184;DHT22;35021;49.214;12.270;2023-04-23T04:27:03;20.20;48.00
49184;DHT22;35021;49.214;12.270;2023-04-23T04:29:32;20.20;48.10
49184;DHT22;35021;49.214;12.270;2023-04-23T04:32:00;20.20;48.80
49184;DHT22;35021;49.214;12.270;2023-04-23T04:34:28;20.30;48.10
49184;DHT22;35021;49.214;12.270;2023-04-23T04:36:55;20.30;48.10
49184;DHT22;35021;49.214;12.270;2023-04-23T04:39:21;20.40;47.90
49184;DHT22;35021;49.214;12.270;2023-04-23T04:41:48;20.50;47.80
49184;DHT22;35021;49.214;12.270;2023-04-23T04:44:15;20.60;47.70
49184;DHT22;35021;49.214;12.270;2023-04-23T04:46:42;20.60;47.50
49184;DHT22;35021;49.214;12.270;2023-04-23T04:49:11;20.80;47.40
49184;DHT22;35021;49.214;12.270;2023-04-23T04:51:38;20.90;47.30
49184;DHT22;35021;49.214;12.270;2023-04-23T04:54:06;20.90;47.10
49184;DHT22;35021;49.214;12.270;2023-04-23T04:56:33;21.00;47.00
49184;DHT22;35021;49.214;12.270;2023-04-23T04:59:01;21.10;47.00
49184;DHT22;35021;49.214;12.270;2023-04-23T05:01:28;21.20;46.80
49184;DHT22;35021;49.214;12.270;2023-04-23T05:03:58;21.20;46.70
49184;DHT22;35021;49.214;12.270;2023-04-23T05:06:25;21.30;46.50
49184;DHT22;35021;49.214;12.270;2023-04-23T05:08:54;21.30;46.30
49184;DHT22;35021;49.214;12.270;2023-04-23T05:11:21;21.40;46.30
49184;DHT22;35021;49.214;12.270;2023-04-23T05:13:48;21.40;46.40
49184;DHT22;35021;49.214;12.270;2023-04-23T05:16:14;21.30;46.40
49184;DHT22;35021;49.214;12.270;2023-04-23T05:18:42;21.30;46.60
49184;DHT22;35021;49.214;12.270;2023-04-23T05:21:09;21.30;46.70
49184;DHT22;35021;49.214;12.270;2023-04-23T05:23:35;21.20;46.80
49184;DHT22;35021;49.214;12.270;2023-04-23T05:26:02;21.10;46.80
49184;DHT22;35021;49.214;12.270;2023-04-23T05:28:30;21.10;46.70
49184;DHT22;35021;49.214;12.270;2023-04-23T05:30:57;21.10;46.60
49184;DHT22;35021;49.214;12.270;2023-04-23T05:33:24;21.20;46.50
49184;DHT22;35021;49.214;12.270;2023-04-23T05:35:58;21.20;46.40
49184;DHT22;35021;49.214;12.270;2023-04-23T05:38:25;21.30;46.40
49184;DHT22;35021;49.214;12.270;2023-04-23T05:40:52;21.30;46.40
49184;DHT22;35021;49.214;12.270;2023-04-23T05:43:19;21.40;46.40
49184;DHT22;35021;49.214;12.270;2023-04-23T05:45:46;21.40;46.40
49184;DHT22;35021;49.214;12.270;2023-04-23T05:48:13;21.40;46.40
49184;DHT22;35021;49.214;12.270;2023-04-23T05:50:40;21.40;46.40
49184;DHT22;35021;49.214;12.270;2023-04-23T05:53:06;21.40;46.40
49184;DHT22;35021;49.214;12.270;2023-04-23T05:55:34;21.40;46.50
49184;DHT22;35021;49.214;12.270;2023-04-23T05:58:01;21.40;46.40
49184;DHT22;35021;49.214;12.270;2023-04-23T06:00:29;21.40;46.50
49184;DHT22;35021;49.214;12.270;2023-04-23T06:02:56;21.30;46.50
49184;DHT22;35021;49.214;12.270;2023-04-23T06:05:23;21.20;46.60
49184;DHT22;35021;49.214;12.270;2023-04-23T06:07:50;21.20;46.70
49184;DHT22;35021;49.214;12.270;2023-04-23T06:10:17;21.20;46.80
49184;DHT22;35021;49.214;12.270;2023-04-23T06:12:44;21.20;46.90
49184;DHT22;35021;49.214;12.270;2023-04-23T06:15:11;21.20;46.90
49184;DHT22;35021;49.214;12.270;2023-04-23T06:17:37;21.30;46.90
49184;DHT22;35021;49.214;12.270;2023-04-23T06:20:05;21.30;46.90
49184;DHT22;35021;49.214;12.270;2023-04-23T06:22:33;21.40;47.10
49184;DHT22;35021;49.214;12.270;2023-04-23T06:25:00;21.50;46.60
49184;DHT22;35021;49.214;12.270;2023-04-23T06:27:27;21.50;46.40
49184;DHT22;35021;49.214;12.270;2023-04-23T06:29:54;21.60;46.30
49184;DHT22;35021;49.214;12.270;2023-04-23T06:32:21;21.70;46.10
49184;DHT22;35021;49.214;12.270;2023-04-23T06:34:48;21.70;45.90
49184;DHT22;35021;49.214;12.270;2023-04-23T06:37:26;21.70;45.80
49184;DHT22;35021;49.214;12.270;2023-04-23T06:39:56;21.70;45.80
49184;DHT22;35021;49.214;12.270;2023-04-23T06:42:23;21.80;45.90
49184;DHT22;35021;49.214;12.270;2023-04-23T06:44:50;21.70;45.80
49184;DHT22;35021;49.214;12.270;2023-04-23T06:47:18;21.70;45.90
49184;DHT22;35021;49.214;12.270;2023-04-23T06:49:45;21.70;46.10
49184;DHT22;35021;49.214;12.270;2023-04-23T06:52:12;21.60;46.20
49184;DHT22;35021;49.214;12.270;2023-04-23T06:54:39;21.50;46.50
49184;DHT22;35021;49.214;12.270;2023-04-23T06:57:06;21.40;46.70
49184;DHT22;35021;49.214;12.270;2023-04-23T06:59:33;21.40;46.90
49184;DHT22;35021;49.214;12.270;2023-04-23T07:02:00;21.30;47.00
49184;DHT22;35021;49.214;12.270;2023-04-23T07:04:27;21.30;47.10
49184;DHT22;35021;49.214;12.270;2023-04-23T07:06:54;21.30;47.30
49184;DHT22;35021;49.214;12.270;2023-04-23T07:09:21;21.30;47.40
49184;DHT22;35021;49.214;12.270;2023-04-23T07:11:48;21.30;47.50
49184;DHT22;35021;49.214;12.270;2023-04-23T07:14:16;21.30;47.50
49184;DHT22;35021;49.214;12.270;2023-04-23T07:16:43;21.30;47.30
49184;DHT22;35021;49.214;12.270;2023-04-23T07:19:10;21.30;47.20
49184;DHT22;35021;49.214;12.270;2023-04-23T07:21:37;21.40;47.20
49184;DHT22;35021;49.214;12.270;2023-04-23T07:24:04;21.40;47.10
49184;DHT22;35021;49.214;12.270;2023-04-23T07:26:35;21.40;47.10
49184;DHT22;35021;49.214;12.270;2023-04-23T07:29:03;21.40;47.20
49184;DHT22;35021;49.214;12.270;2023-04-23T07:31:33;21.40;47.30
49184;DHT22;35021;49.214;12.270;2023-04-23T07:34:00;21.40;47.40
49184;DHT22;35021;49.214;12.270;2023-04-23T07:36:27;21.30;47.50
49184;DHT22;35021;49.214;12.270;2023-04-23T07:38:54;21.30;47.60
49184;DHT22;35021;49.214;12.270;2023-04-23T07:41:21;21.20;47.80
49184;DHT22;35021;49.214;12.270;2023-04-23T07:43:48;21.20;47.90
49184;DHT22;35021;49.214;12.270;2023-04-23T07:46:15;21.20;47.90
49184;DHT22;35021;49.214;12.270;2023-04-23T07:48:42;21.20;48.10
49184;DHT22;35021;49.214;12.270;2023-04-23T07:51:09;21.20;48.10
49184;DHT22;35021;49.214;12.270;2023-04-23T07:53:36;21.20;48.20
49184;DHT22;35021;49.214;12.270;2023-04-23T07:56:03;21.10;48.20
49184;DHT22;35021;49.214;12.270;2023-04-23T07:58:31;21.10;48.20
49184;DHT22;35021;49.214;12.270;2023-04-23T08:00:58;21.20;48.30
49184;DHT22;35021;49.214;12.270;2023-04-23T08:03:27;21.20;48.20
49184;DHT22;35021;49.214;12.270;2023-04-23T08:05:54;21.20;48.20
49184;DHT22;35021;49.214;12.270;2023-04-23T08:08:22;21.20;48.20
49184;DHT22;35021;49.214;12.270;2023-04-23T08:10:49;21.20;48.20
49184;DHT22;35021;49.214;12.270;2023-04-23T08:13:16;21.20;48.00
49184;DHT22;35021;49.214;12.270;2023-04-23T08:15:43;21.20;48.00
49184;DHT22;35021;49.214;12.270;2023-04-23T08:18:10;21.20;47.90
49184;DHT22;35021;49.214;12.270;2023-04-23T08:20:37;21.20;48.00
49184;DHT22;35021;49.214;12.270;2023-04-23T08:23:04;21.20;48.00
49184;DHT22;35021;49.214;12.270;2023-04-23T08:25:31;21.20;48.10
49184;DHT22;35021;49.214;12.270;2023-04-23T08:27:58;21.20;48.30
49184;DHT22;35021;49.214;12.270;2023-04-23T08:30:25;21.20;48.40
49184;DHT22;35021;49.214;12.270;2023-04-23T08:32:52;21.10;48.40
49184;DHT22;35021;49.214;12.270;2023-04-23T08:35:20;21.10;48.40
49184;DHT22;35021;49.214;12.270;2023-04-23T08:37:47;21.20;48.60
49184;DHT22;35021;49.214;12.270;2023-04-23T08:40:15;21.20;48.60
49184;DHT22;35021;49.214;12.270;2023-04-23T08:42:51;21.20;48.50
49184;DHT22;35021;49.214;12.270;2023-04-23T08:45:18;21.30;48.50
49184;DHT22;35021;49.214;12.270;2023-04-23T08:47:45;21.30;48.50
49184;DHT22;35021;49.214;12.270;2023-04-23T08:50:14;21.40;48.40
49184;DHT22;35021;49.214;12.270;2023-04-23T08:52:54;21.50;48.30
49184;DHT22;35021;49.214;12.270;2023-04-23T08:55:23;21.60;48.20
49184;DHT22;35021;49.214;12.270;2023-04-23T08:57:50;21.70;48.10
49184;DHT22;35021;49.214;12.270;2023-04-23T09:00:19;21.70;48.00
49184;DHT22;35021;49.214;12.270;2023-04-23T09:02:48;21.80;47.90
49184;DHT22;35021;49.214;12.270;2023-04-23T09:05:16;21.90;47.90
49184;DHT22;35021;49.214;12.270;2023-04-23T09:07:44;22.00;47.90
49184;DHT22;35021;49.214;12.270;2023-04-23T09:10:11;22.00;47.80
49184;DHT22;35021;49.214;12.270;2023-04-23T09:12:43;22.10;47.70
49184;DHT22;35021;49.214;12.270;2023-04-23T09:15:11;22.20;47.60
49184;DHT22;35021;49.214;12.270;2023-04-23T09:17:42;22.20;47.50
49184;DHT22;35021;49.214;12.270;2023-04-23T09:20:10;22.30;47.30
49184;DHT22;35021;49.214;12.270;2023-04-23T09:22:47;22.30;47.30
49184;DHT22;35021;49.214;12.270;2023-04-23T09:25:17;22.40;47.20
49184;DHT22;35021;49.214;12.270;2023-04-23T09:27:45;22.50;47.10
49184;DHT22;35021;49.214;12.270;2023-04-23T09:30:12;22.50;47.00
49184;DHT22;35021;49.214;12.270;2023-04-23T09:32:42;22.60;47.00
49184;DHT22;35021;49.214;12.270;2023-04-23T09:35:12;22.60;47.00
49184;DHT22;35021;49.214;12.270;2023-04-23T09:37:45;22.70;46.80
49184;DHT22;35021;49.214;12.270;2023-04-23T09:40:17;22.70;46.80
49184;DHT22;35021;49.214;12.270;2023-04-23T09:42:49;22.80;46.80
49184;DHT22;35021;49.214;12.270;2023-04-23T09:45:18;22.80;46.60
49184;DHT22;35021;49.214;12.270;2023-04-23T09:50:16;22.90;46.40
49184;DHT22;35021;49.214;12.270;2023-04-23T09:52:43;23.00;46.30
49184;DHT22;35021;49.214;12.270;2023-04-23T09:55:09;22.90;46.30
49184;DHT22;35021;49.214;12.270;2023-04-23T09:57:45;23.00;46.40
49184;DHT22;35021;49.214;12.270;2023-04-23T10:00:14;22.90;46.30
49184;DHT22;35021;49.214;12.270;2023-04-23T10:02:49;22.90;46.40
49184;DHT22;35021;49.214;12.270;2023-04-23T10:05:21;22.90;46.50
49184;DHT22;35021;49.214;12.270;2023-04-23T10:07:57;22.90;46.60
49184;DHT22;35021;49.214;12.270;2023-04-23T10:10:29;22.80;46.60
49184;DHT22;35021;49.214;12.270;2023-04-23T10:12:56;22.80;46.70
49184;DHT22;35021;49.214;12.270;2023-04-23T10:15:25;22.80;46.90
49184;DHT22;35021;49.214;12.270;2023-04-23T10:17:54;22.70;46.90
49184;DHT22;35021;49.214;12.270;2023-04-23T10:20:22;22.70;47.00
49184;DHT22;35021;49.214;12.270;2023-04-23T10:22:52;22.70;47.10
49184;DHT22;35021;49.214;12.270;2023-04-23T10:25:21;22.60;47.10
49184;DHT22;35021;49.214;12.270;2023-04-23T10:27:48;22.50;47.30
49184;DHT22;35021;49.214;12.270;2023-04-23T10:30:20;22.40;47.40
49184;DHT22;35021;49.214;12.270;2023-04-23T10:32:49;22.40;47.50
49184;DHT22;35021;49.214;12.270;2023-04-23T10:35:17;22.40;47.60
49184;DHT22;35021;49.214;12.270;2023-04-23T10:37:45;22.40;47.60
49184;DHT22;35021;49.214;12.270;2023-04-23T10:40:18;22.40;47.60
49184;DHT22;35021;49.214;12.270;2023-04-23T10:42:48;22.40;47.60
49184;DHT22;35021;49.214;12.270;2023-04-23T10:45:18;22.40;47.50
49184;DHT22;35021;49.214;12.270;2023-04-23T10:47:54;22.40;47.40
49184;DHT22;35021;49.214;12.270;2023-04-23T10:52:51;22.40;47.40
49184;DHT22;35021;49.214;12.270;2023-04-23T10:55:27;22.40;47.40
49184;DHT22;35021;49.214;12.270;2023-04-23T10:58:04;22.40;47.40
49184;DHT22;35021;49.214;12.270;2023-04-23T11:06:03;22.50;47.20
49184;DHT22;35021;49.214;12.270;2023-04-23T11:08:30;22.50;47.20
49184;DHT22;35021;49.214;12.270;2023-04-23T11:11:00;22.50;47.20
49184;DHT22;35021;49.214;12.270;2023-04-23T11:13:28;22.50;47.20
49184;DHT22;35021;49.214;12.270;2023-04-23T11:24:37;22.30;47.40
49184;DHT22;35021;49.214;12.270;2023-04-23T11:27:13;22.20;47.60
49184;DHT22;35021;49.214;12.270;2023-04-23T11:29:42;22.20;47.70
49184;DHT22;35021;49.214;12.270;2023-04-23T11:32:15;22.20;47.90
49184;DHT22;35021;49.214;12.270;2023-04-23T11:34:45;22.20;47.90
49184;DHT22;35021;49.214;12.270;2023-04-23T11:37:16;22.30;47.90
49184;DHT22;35021;49.214;12.270;2023-04-23T11:39:44;22.30;47.90
49184;DHT22;35021;49.214;12.270;2023-04-23T11:42:14;22.30;47.70
49184;DHT22;35021;49.214;12.270;2023-04-23T11:44:42;22.40;47.70
49184;DHT22;35021;49.214;12.270;2023-04-23T11:47:12;22.40;47.50
49184;DHT22;35021;49.214;12.270;2023-04-23T11:49:41;22.50;47.30
49184;DHT22;35021;49.214;12.270;2023-04-23T11:52:11;22.50;47.20
49184;DHT22;35021;49.214;12.270;2023-04-23T11:54:40;22.60;47.20
49184;DHT22;35021;49.214;12.270;2023-04-23T11:57:07;22.60;47.10
49184;DHT22;35021;49.214;12.270;2023-04-23T11:59:35;22.60;47.00
49184;DHT22;35021;49.214;12.270;2023-04-23T12:02:02;22.70;47.00
49184;DHT22;35021;49.214;12.270;2023-04-23T12:04:30;22.70;47.00
49184;DHT22;35021;49.214;12.270;2023-04-23T12:06:58;22.70;46.90
49184;DHT22;35021;49.214;12.270;2023-04-23T12:09:27;22.70;46.90
49184;DHT22;35021;49.214;12.270;2023-04-23T12:11:57;22.60;46.90
49184;DHT22;35021;49.214;12.270;2023-04-23T12:14:27;22.60;46.80
49184;DHT22;35021;49.214;12.270;2023-04-23T12:16:55;22.50;46.80
49184;DHT22;35021;49.214;12.270;2023-04-23T12:19:29;22.50;46.90
49184;DHT22;35021;49.214;12.270;2023-04-23T12:22:01;22.40;46.90
49184;DHT22;35021;49.214;12.270;2023-04-23T12:24:45;22.30;46.90
49184;DHT22;35021;49.214;12.270;2023-04-23T12:27:14;22.30;47.10
49184;DHT22;35021;49.214;12.270;2023-04-23T12:29:42;22.20;47.30
49184;DHT22;35021;49.214;12.270;2023-04-23T12:32:10;22.20;47.40
49184;DHT22;35021;49.214;12.270;2023-04-23T12:34:40;22.10;47.50
49184;DHT22;35021;49.214;12.270;2023-04-23T12:37:26;22.10;47.50
49184;DHT22;35021;49.214;12.270;2023-04-23T12:39:55;22.00;47.50
49184;DHT22;35021;49.214;12.270;2023-04-23T12:42:26;22.00;47.60
49184;DHT22;35021;49.214;12.270;2023-04-23T12:44:52;22.00;47.70
49184;DHT22;35021;49.214;12.270;2023-04-23T12:47:22;21.90;47.70
49184;DHT22;35021;49.214;12.270;2023-04-23T12:49:50;21.90;47.80
49184;DHT22;35021;49.214;12.270;2023-04-23T12:52:21;21.90;47.80
49184;DHT22;35021;49.214;12.270;2023-04-23T12:54:48;21.90;47.80
49184;DHT22;35021;49.214;12.270;2023-04-23T12:57:18;21.80;47.80
49184;DHT22;35021;49.214;12.270;2023-04-23T12:59:49;21.90;48.00
49184;DHT22;35021;49.214;12.270;2023-04-23T13:02:16;21.80;47.90
49184;DHT22;35021;49.214;12.270;2023-04-23T13:04:43;21.80;47.90
49184;DHT22;35021;49.214;12.270;2023-04-23T13:07:10;21.80;47.80
49184;DHT22;35021;49.214;12.270;2023-04-23T13:09:37;21.80;47.90
49184;DHT22;35021;49.214;12.270;2023-04-23T13:12:05;21.80;47.90
49184;DHT22;35021;49.214;12.270;2023-04-23T13:14:31;21.90;47.90
49184;DHT22;35021;49.214;12.270;2023-04-23T13:16:59;21.90;47.80
49184;DHT22;35021;49.214;12.270;2023-04-23T13:19:26;21.90;47.60
49184;DHT22;35021;49.214;12.270;2023-04-23T13:21:54;22.00;47.40
49184;DHT22;35021;49.214;12.270;2023-04-23T13:24:21;22.10;47.30
49184;DHT22;35021;49.214;12.270;2023-04-23T13:26:49;22.10;47.20
49184;DHT22;35021;49.214;12.270;2023-04-23T13:29:16;22.20;47.20
49184;DHT22;35021;49.214;12.270;2023-04-23T13:31:43;22.30;47.00
49184;DHT22;35021;49.214;12.270;2023-04-23T13:34:10;22.40;46.80
49184;DHT22;35021;49.214;12.270;2023-04-23T13:36:37;22.40;46.40
49184;DHT22;35021;49.214;12.270;2023-04-23T13:39:07;22.40;46.20
49184;DHT22;35021;49.214;12.270;2023-04-23T13:41:34;22.40;46.10
49184;DHT22;35021;49.214;12.270;2023-04-23T13:44:02;22.50;46.20
49184;DHT22;35021;49.214;12.270;2023-04-23T13:46:29;22.40;46.10
49184;DHT22;35021;49.214;12.270;2023-04-23T13:48:56;22.40;46.20
49184;DHT22;35021;49.214;12.270;2023-04-23T13:51:24;22.40;46.20
49184;DHT22;35021;49.214;12.270;2023-04-23T13:54:01;22.40;46.30
49184;DHT22;35021;49.214;12.270;2023-04-23T13:56:29;22.40;46.40
49184;DHT22;35021;49.214;12.270;2023-04-23T13:58:57;22.30;46.50
49184;DHT22;35021;49.214;12.270;2023-04-23T14:01:45;22.30;46.40
49184;DHT22;35021;49.214;12.270;2023-04-23T14:04:16;22.20;46.40
49184;DHT22;35021;49.214;12.270;2023-04-23T14:06:43;22.20;46.50
49184;DHT22;35021;49.214;12.270;2023-04-23T14:09:10;22.20;46.50
49184;DHT22;35021;49.214;12.270;2023-04-23T14:11:38;22.10;46.40
49184;DHT22;35021;49.214;12.270;2023-04-23T14:14:06;22.10;46.40
49184;DHT22;35021;49.214;12.270;2023-04-23T14:16:34;22.10;46.50
49184;DHT22;35021;49.214;12.270;2023-04-23T14:19:02;22.10;46.50
49184;DHT22;35021;49.214;12.270;2023-04-23T14:21:29;22.00;46.50
49184;DHT22;35021;49.214;12.270;2023-04-23T14:24:22;22.00;46.60
49184;DHT22;35021;49.214;12.270;2023-04-23T14:26:53;22.00;46.50
49184;DHT22;35021;49.214;12.270;2023-04-23T14:29:35;22.00;46.30
49184;DHT22;35021;49.214;12.270;2023-04-23T14:32:06;22.00;46.20
49184;DHT22;35021;49.214;12.270;2023-04-23T14:34:33;22.10;46.20
49184;DHT22;35021;49.214;12.270;2023-04-23T14:37:03;22.00;46.40
49184;DHT22;35021;49.214;12.270;2023-04-23T14:39:30;22.10;46.30
49184;DHT22;35021;49.214;12.270;2023-04-23T14:41:57;22.10;46.30
49184;DHT22;35021;49.214;12.270;2023-04-23T14:44:24;22.10;46.30
49184;DHT22;35021;49.214;12.270;2023-04-23T14:46:54;22.10;46.20
49184;DHT22;35021;49.214;12.270;2023-04-23T14:49:23;22.10;46.30
49184;DHT22;35021;49.214;12.270;2023-04-23T14:51:51;22.00;46.30
49184;DHT22;35021;49.214;12.270;2023-04-23T14:54:23;22.00;46.40
49184;DHT22;35021;49.214;12.270;2023-04-23T14:56:50;22.00;46.40
49184;DHT22;35021;49.214;12.270;2023-04-23T14:59:17;21.90;46.40
49184;DHT22;35021;49.214;12.270;2023-04-23T15:01:44;21.90;46.50
49184;DHT22;35021;49.214;12.270;2023-04-23T15:04:11;21.90;46.60
49184;DHT22;35021;49.214;12.270;2023-04-23T15:06:39;21.90;46.60
49184;DHT22;35021;49.214;12.270;2023-04-23T15:09:06;21.90;46.70
49184;DHT22;35021;49.214;12.270;2023-04-23T15:11:33;21.80;46.70
49184;DHT22;35021;49.214;12.270;2023-04-23T15:14:18;21.80;46.70
49184;DHT22;35021;49.214;12.270;2023-04-23T15:16:46;21.80;46.80
49184;DHT22;35021;49.214;12.270;2023-04-23T15:19:16;21.80;46.70
49184;DHT22;35021;49.214;12.270;2023-04-23T15:21:45;21.80;46.70
49184;DHT22;35021;49.214;12.270;2023-04-23T15:24:13;21.80;46.70
49184;DHT22;35021;49.214;12.270;2023-04-23T15:26:40;21.80;46.70
49184;DHT22;35021;49.214;12.270;2023-04-23T15:29:08;21.80;46.70
49184;DHT22;35021;49.214;12.270;2023-04-23T15:31:36;21.80;46.70
49184;DHT22;35021;49.214;12.270;2023-04-23T15:34:04;21.80;46.80
49184;DHT22;35021;49.214;12.270;2023-04-23T15:36:35;21.70;46.70
49184;DHT22;35021;49.214;12.270;2023-04-23T15:39:04;21.70;46.80
49184;DHT22;35021;49.214;12.270;2023-04-23T15:41:34;21.70;46.80